Terminal Aerodrome Forecast
Issued by NWS Wakefield, VA

Home | Current Version | Previous Version | Text Only | Print | Product List | Glossary On
Versions: 1 2 3 4 5 6 7 8 9 10 11 12
515
FTUS41 KAKQ 210531
TAFORF
TAF
KORF 210531Z 2106/2206 VRB02KT P6SM SKC
     FM211400 05006KT P6SM SKC
     FM212300 12003KT P6SM SKC=

USA.gov is the U.S. government's official web portal to all federal, state and local government web resources and services.